sensor_id;sensor_type;location;lat;lon;timestamp;P1;durP1;ratioP1;P2;durP2;ratioP2
41546;SDS011;27271;45.412;10.852;2023-09-08T04:00:37;2.78;;;1.70;;
41546;SDS011;27271;45.412;10.852;2023-09-08T04:04:00;2.58;;;1.63;;
41546;SDS011;27271;45.412;10.852;2023-09-08T04:07:23;1.63;;;1.40;;
41546;SDS011;27271;45.412;10.852;2023-09-08T04:10:45;1.58;;;0.95;;
41546;SDS011;27271;45.412;10.852;2023-09-08T04:14:08;4.80;;;1.88;;
41546;SDS011;27271;45.412;10.852;2023-09-08T04:17:30;5.38;;;0.93;;
41546;SDS011;27271;45.412;10.852;2023-09-08T04:20:52;1.45;;;1.05;;
41546;SDS011;27271;45.412;10.852;2023-09-08T04:24:14;1.10;;;0.70;;
41546;SDS011;27271;45.412;10.852;2023-09-08T04:27:36;1.52;;;0.80;;
41546;SDS011;27271;45.412;10.852;2023-09-08T04:30:58;1.17;;;1.05;;
41546;SDS011;27271;45.412;10.852;2023-09-08T04:34:21;2.78;;;1.35;;
41546;SDS011;27271;45.412;10.852;2023-09-08T04:37:43;0.68;;;0.60;;
41546;SDS011;27271;45.412;10.852;2023-09-08T04:41:05;2.28;;;1.48;;
41546;SDS011;27271;45.412;10.852;2023-09-08T04:44:28;1.85;;;1.17;;
41546;SDS011;27271;45.412;10.852;2023-09-08T04:47:51;2.83;;;0.80;;
41546;SDS011;27271;45.412;10.852;2023-09-08T04:51:15;2.10;;;1.88;;
41546;SDS011;27271;45.412;10.852;2023-09-08T04:54:39;2.92;;;2.47;;
41546;SDS011;27271;45.412;10.852;2023-09-08T04:58:01;1.25;;;1.25;;
41546;SDS011;27271;45.412;10.852;2023-09-08T05:01:24;1.48;;;0.98;;
41546;SDS011;27271;45.412;10.852;2023-09-08T05:04:48;4.32;;;1.77;;
41546;SDS011;27271;45.412;10.852;2023-09-08T05:08:11;1.27;;;1.13;;
41546;SDS011;27271;45.412;10.852;2023-09-08T05:11:33;1.30;;;1.05;;
41546;SDS011;27271;45.412;10.852;2023-09-08T05:14:56;1.80;;;1.70;;
41546;SDS011;27271;45.412;10.852;2023-09-08T05:18:22;4.65;;;1.27;;
41546;SDS011;27271;45.412;10.852;2023-09-08T05:21:49;3.13;;;1.70;;
41546;SDS011;27271;45.412;10.852;2023-09-08T05:25:17;2.35;;;2.15;;
41546;SDS011;27271;45.412;10.852;2023-09-08T05:28:40;4.47;;;2.22;;
41546;SDS011;27271;45.412;10.852;2023-09-08T05:32:05;1.90;;;1.33;;
41546;SDS011;27271;45.412;10.852;2023-09-08T05:35:31;2.13;;;1.05;;
41546;SDS011;27271;45.412;10.852;2023-09-08T05:38:54;1.42;;;1.00;;
41546;SDS011;27271;45.412;10.852;2023-09-08T05:42:17;1.08;;;0.85;;
41546;SDS011;27271;45.412;10.852;2023-09-08T05:45:39;2.42;;;1.85;;
41546;SDS011;27271;45.412;10.852;2023-09-08T05:49:02;1.55;;;1.45;;
41546;SDS011;27271;45.412;10.852;2023-09-08T05:52:26;1.55;;;1.35;;
41546;SDS011;27271;45.412;10.852;2023-09-08T05:55:50;2.08;;;1.48;;
41546;SDS011;27271;45.412;10.852;2023-09-08T05:59:14;2.88;;;1.33;;
41546;SDS011;27271;45.412;10.852;2023-09-08T06:02:36;3.78;;;1.55;;
41546;SDS011;27271;45.412;10.852;2023-09-08T06:06:01;1.35;;;0.80;;
41546;SDS011;27271;45.412;10.852;2023-09-08T06:09:24;1.83;;;0.95;;
41546;SDS011;27271;45.412;10.852;2023-09-08T06:12:47;1.55;;;1.13;;
41546;SDS011;27271;45.412;10.852;2023-09-08T06:16:12;6.95;;;1.92;;
41546;SDS011;27271;45.412;10.852;2023-09-08T06:19:35;3.47;;;1.08;;
41546;SDS011;27271;45.412;10.852;2023-09-08T06:22:57;1.40;;;1.10;;
41546;SDS011;27271;45.412;10.852;2023-09-08T06:26:19;3.03;;;1.27;;
41546;SDS011;27271;45.412;10.852;2023-09-08T06:29:42;1.88;;;1.70;;
41546;SDS011;27271;45.412;10.852;2023-09-08T06:33:10;1.90;;;1.55;;
41546;SDS011;27271;45.412;10.852;2023-09-08T06:36:33;2.65;;;1.30;;
41546;SDS011;27271;45.412;10.852;2023-09-08T06:39:56;2.47;;;1.88;;
41546;SDS011;27271;45.412;10.852;2023-09-08T06:43:19;2.08;;;1.92;;
41546;SDS011;27271;45.412;10.852;2023-09-08T06:46:52;2.72;;;1.80;;
41546;SDS011;27271;45.412;10.852;2023-09-08T06:50:19;1.58;;;1.02;;
41546;SDS011;27271;45.412;10.852;2023-09-08T06:53:42;4.32;;;1.67;;
41546;SDS011;27271;45.412;10.852;2023-09-08T06:57:05;4.90;;;2.13;;
41546;SDS011;27271;45.412;10.852;2023-09-08T07:00:29;2.67;;;1.67;;
41546;SDS011;27271;45.412;10.852;2023-09-08T07:03:53;2.58;;;1.73;;
41546;SDS011;27271;45.412;10.852;2023-09-08T07:07:16;1.42;;;1.17;;
41546;SDS011;27271;45.412;10.852;2023-09-08T07:10:43;3.58;;;2.17;;
41546;SDS011;27271;45.412;10.852;2023-09-08T07:14:06;3.13;;;2.10;;
41546;SDS011;27271;45.412;10.852;2023-09-08T07:17:31;2.40;;;2.13;;
41546;SDS011;27271;45.412;10.852;2023-09-08T07:20:53;2.13;;;1.35;;
41546;SDS011;27271;45.412;10.852;2023-09-08T07:24:16;6.60;;;1.85;;
41546;SDS011;27271;45.412;10.852;2023-09-08T07:27:39;4.32;;;1.83;;
41546;SDS011;27271;45.412;10.852;2023-09-08T07:31:03;1.80;;;1.48;;
41546;SDS011;27271;45.412;10.852;2023-09-08T07:34:29;5.53;;;1.58;;
41546;SDS011;27271;45.412;10.852;2023-09-08T07:37:52;2.58;;;1.65;;
41546;SDS011;27271;45.412;10.852;2023-09-08T07:41:15;1.98;;;1.08;;
41546;SDS011;27271;45.412;10.852;2023-09-08T07:44:37;0.90;;;0.82;;
41546;SDS011;27271;45.412;10.852;2023-09-08T07:47:59;1.67;;;0.85;;
41546;SDS011;27271;45.412;10.852;2023-09-08T07:51:25;5.07;;;2.08;;
41546;SDS011;27271;45.412;10.852;2023-09-08T07:54:48;3.47;;;2.13;;
41546;SDS011;27271;45.412;10.852;2023-09-08T07:58:10;2.10;;;1.73;;
41546;SDS011;27271;45.412;10.852;2023-09-08T08:01:32;2.38;;;1.45;;
41546;SDS011;27271;45.412;10.852;2023-09-08T08:04:55;2.75;;;2.17;;
41546;SDS011;27271;45.412;10.852;2023-09-08T08:08:17;1.63;;;1.52;;
41546;SDS011;27271;45.412;10.852;2023-09-08T08:11:39;1.38;;;1.10;;
41546;SDS011;27271;45.412;10.852;2023-09-08T08:15:01;3.88;;;1.92;;
41546;SDS011;27271;45.412;10.852;2023-09-08T08:18:24;1.40;;;1.17;;
41546;SDS011;27271;45.412;10.852;2023-09-08T08:21:46;9.73;;;1.52;;
41546;SDS011;27271;45.412;10.852;2023-09-08T08:25:08;2.13;;;1.50;;
41546;SDS011;27271;45.412;10.852;2023-09-08T08:28:33;1.20;;;1.10;;
41546;SDS011;27271;45.412;10.852;2023-09-08T08:31:56;2.22;;;0.98;;
41546;SDS011;27271;45.412;10.852;2023-09-08T08:35:18;2.90;;;2.15;;
41546;SDS011;27271;45.412;10.852;2023-09-08T08:38:42;1.40;;;1.23;;
41546;SDS011;27271;45.412;10.852;2023-09-08T08:42:08;4.57;;;1.92;;
41546;SDS011;27271;45.412;10.852;2023-09-08T08:45:31;1.42;;;1.33;;
41546;SDS011;27271;45.412;10.852;2023-09-08T08:48:54;3.17;;;1.15;;
41546;SDS011;27271;45.412;10.852;2023-09-08T08:52:17;1.90;;;1.58;;
41546;SDS011;27271;45.412;10.852;2023-09-08T08:55:40;5.13;;;1.90;;
41546;SDS011;27271;45.412;10.852;2023-09-08T08:59:03;1.33;;;1.23;;
41546;SDS011;27271;45.412;10.852;2023-09-08T09:02:25;1.60;;;1.38;;
41546;SDS011;27271;45.412;10.852;2023-09-08T09:05:50;1.17;;;0.85;;
41546;SDS011;27271;45.412;10.852;2023-09-08T09:09:13;1.25;;;1.15;;
41546;SDS011;27271;45.412;10.852;2023-09-08T09:12:36;2.75;;;1.65;;
41546;SDS011;27271;45.412;10.852;2023-09-08T09:15:59;1.30;;;1.20;;
41546;SDS011;27271;45.412;10.852;2023-09-08T09:19:24;3.22;;;1.55;;
41546;SDS011;27271;45.412;10.852;2023-09-08T09:22:49;4.68;;;1.92;;
41546;SDS011;27271;45.412;10.852;2023-09-08T09:26:11;0.73;;;0.73;;
41546;SDS011;27271;45.412;10.852;2023-09-08T09:29:48;11.60;;;2.00;;
41546;SDS011;27271;45.412;10.852;2023-09-08T09:33:12;1.40;;;1.25;;
41546;SDS011;27271;45.412;10.852;2023-09-08T09:36:34;1.80;;;1.27;;
41546;SDS011;27271;45.412;10.852;2023-09-08T09:40:04;1.67;;;1.35;;
41546;SDS011;27271;45.412;10.852;2023-09-08T09:43:29;1.08;;;0.98;;
41546;SDS011;27271;45.412;10.852;2023-09-08T09:46:52;7.70;;;1.90;;
41546;SDS011;27271;45.412;10.852;2023-09-08T09:50:15;2.15;;;1.52;;
41546;SDS011;27271;45.412;10.852;2023-09-08T09:53:55;4.95;;;1.67;;
41546;SDS011;27271;45.412;10.852;2023-09-08T09:57:17;1.90;;;1.25;;
41546;SDS011;27271;45.412;10.852;2023-09-08T10:00:43;1.65;;;1.35;;
41546;SDS011;27271;45.412;10.852;2023-09-08T10:04:10;1.85;;;1.75;;
41546;SDS011;27271;45.412;10.852;2023-09-08T10:07:33;1.83;;;1.25;;
41546;SDS011;27271;45.412;10.852;2023-09-08T10:10:55;1.70;;;1.35;;
41546;SDS011;27271;45.412;10.852;2023-09-08T10:14:19;2.80;;;1.77;;
41546;SDS011;27271;45.412;10.852;2023-09-08T10:17:42;2.00;;;1.05;;
41546;SDS011;27271;45.412;10.852;2023-09-08T10:21:11;1.27;;;0.98;;
41546;SDS011;27271;45.412;10.852;2023-09-08T10:24:34;1.35;;;0.95;;
41546;SDS011;27271;45.412;10.852;2023-09-08T10:27:59;1.98;;;1.55;;
41546;SDS011;27271;45.412;10.852;2023-09-08T10:31:22;3.83;;;1.70;;
41546;SDS011;27271;45.412;10.852;2023-09-08T10:34:48;1.05;;;0.90;;
41546;SDS011;27271;45.412;10.852;2023-09-08T10:38:32;1.75;;;1.65;;
41546;SDS011;27271;45.412;10.852;2023-09-08T10:45:43;2.90;;;1.52;;
41546;SDS011;27271;45.412;10.852;2023-09-08T10:49:06;1.60;;;1.10;;
41546;SDS011;27271;45.412;10.852;2023-09-08T10:52:29;2.72;;;1.20;;
41546;SDS011;27271;45.412;10.852;2023-09-08T10:55:52;2.25;;;1.25;;
41546;SDS011;27271;45.412;10.852;2023-09-08T10:59:17;2.00;;;1.10;;
41546;SDS011;27271;45.412;10.852;2023-09-08T11:02:41;2.45;;;1.92;;
41546;SDS011;27271;45.412;10.852;2023-09-08T11:06:05;1.92;;;1.30;;
41546;SDS011;27271;45.412;10.852;2023-09-08T11:09:27;1.33;;;1.23;;
41546;SDS011;27271;45.412;10.852;2023-09-08T11:12:50;1.10;;;1.00;;
41546;SDS011;27271;45.412;10.852;2023-09-08T11:16:13;4.05;;;2.13;;
41546;SDS011;27271;45.412;10.852;2023-09-08T11:19:47;2.70;;;1.52;;
41546;SDS011;27271;45.412;10.852;2023-09-08T11:23:10;2.45;;;1.25;;
41546;SDS011;27271;45.412;10.852;2023-09-08T11:26:33;0.73;;;0.55;;
41546;SDS011;27271;45.412;10.852;2023-09-08T11:29:56;4.07;;;1.40;;
41546;SDS011;27271;45.412;10.852;2023-09-08T11:33:20;1.75;;;1.65;;
41546;SDS011;27271;45.412;10.852;2023-09-08T11:36:46;1.95;;;1.48;;
41546;SDS011;27271;45.412;10.852;2023-09-08T11:40:09;3.72;;;1.90;;
41546;SDS011;27271;45.412;10.852;2023-09-08T11:43:36;1.67;;;1.58;;
41546;SDS011;27271;45.412;10.852;2023-09-08T11:46:58;1.70;;;1.60;;
41546;SDS011;27271;45.412;10.852;2023-09-08T11:50:21;1.63;;;1.20;;
41546;SDS011;27271;45.412;10.852;2023-09-08T11:53:44;1.45;;;1.35;;
41546;SDS011;27271;45.412;10.852;2023-09-08T11:57:07;1.48;;;1.20;;
41546;SDS011;27271;45.412;10.852;2023-09-08T12:00:30;2.42;;;1.00;;
41546;SDS011;27271;45.412;10.852;2023-09-08T12:03:54;2.03;;;1.92;;
41546;SDS011;27271;45.412;10.852;2023-09-08T12:07:17;1.48;;;1.23;;
41546;SDS011;27271;45.412;10.852;2023-09-08T12:10:42;1.27;;;1.17;;
41546;SDS011;27271;45.412;10.852;2023-09-08T12:14:08;1.92;;;1.45;;
41546;SDS011;27271;45.412;10.852;2023-09-08T12:17:45;4.28;;;2.05;;
41546;SDS011;27271;45.412;10.852;2023-09-08T12:21:11;1.67;;;1.55;;
41546;SDS011;27271;45.412;10.852;2023-09-08T12:28:30;1.83;;;1.50;;
41546;SDS011;27271;45.412;10.852;2023-09-08T12:31:53;1.38;;;1.27;;
41546;SDS011;27271;45.412;10.852;2023-09-08T12:35:21;1.17;;;1.08;;
41546;SDS011;27271;45.412;10.852;2023-09-08T12:38:50;2.10;;;1.38;;
41546;SDS011;27271;45.412;10.852;2023-09-08T12:42:13;2.92;;;1.52;;
41546;SDS011;27271;45.412;10.852;2023-09-08T12:45:36;2.00;;;1.10;;
41546;SDS011;27271;45.412;10.852;2023-09-08T12:48:58;2.13;;;1.55;;
41546;SDS011;27271;45.412;10.852;2023-09-08T12:52:20;3.22;;;1.27;;
41546;SDS011;27271;45.412;10.852;2023-09-08T12:55:42;2.53;;;1.45;;
41546;SDS011;27271;45.412;10.852;2023-09-08T12:59:04;1.92;;;1.63;;
41546;SDS011;27271;45.412;10.852;2023-09-08T13:02:26;2.85;;;1.38;;
41546;SDS011;27271;45.412;10.852;2023-09-08T13:05:48;2.45;;;1.35;;
41546;SDS011;27271;45.412;10.852;2023-09-08T13:09:10;1.73;;;1.55;;
41546;SDS011;27271;45.412;10.852;2023-09-08T13:12:32;2.03;;;1.83;;
41546;SDS011;27271;45.412;10.852;2023-09-08T13:15:55;2.42;;;1.35;;
41546;SDS011;27271;45.412;10.852;2023-09-08T13:19:17;2.42;;;1.50;;
41546;SDS011;27271;45.412;10.852;2023-09-08T13:22:39;1.70;;;1.58;;
41546;SDS011;27271;45.412;10.852;2023-09-08T13:26:02;2.25;;;1.42;;
41546;SDS011;27271;45.412;10.852;2023-09-08T13:29:24;2.83;;;1.63;;
41546;SDS011;27271;45.412;10.852;2023-09-08T13:32:48;11.77;;;2.17;;
41546;SDS011;27271;45.412;10.852;2023-09-08T13:36:10;1.73;;;1.55;;
41546;SDS011;27271;45.412;10.852;2023-09-08T13:39:32;2.45;;;1.77;;
41546;SDS011;27271;45.412;10.852;2023-09-08T13:42:54;2.42;;;1.48;;
41546;SDS011;27271;45.412;10.852;2023-09-08T13:46:16;10.38;;;2.00;;
41546;SDS011;27271;45.412;10.852;2023-09-08T13:49:39;1.77;;;1.40;;
41546;SDS011;27271;45.412;10.852;2023-09-08T13:53:02;2.22;;;1.42;;
41546;SDS011;27271;45.412;10.852;2023-09-08T13:56:25;10.43;;;1.58;;
41546;SDS011;27271;45.412;10.852;2023-09-08T13:59:48;2.40;;;1.63;;
41546;SDS011;27271;45.412;10.852;2023-09-08T14:03:10;4.70;;;2.03;;
41546;SDS011;27271;45.412;10.852;2023-09-08T14:06:35;2.45;;;1.08;;
41546;SDS011;27271;45.412;10.852;2023-09-08T14:10:02;1.10;;;1.02;;
41546;SDS011;27271;45.412;10.852;2023-09-08T14:13:31;1.35;;;1.15;;
41546;SDS011;27271;45.412;10.852;2023-09-08T14:16:53;1.27;;;1.17;;
41546;SDS011;27271;45.412;10.852;2023-09-08T14:20:16;2.20;;;1.95;;
41546;SDS011;27271;45.412;10.852;2023-09-08T14:23:38;1.73;;;1.17;;
41546;SDS011;27271;45.412;10.852;2023-09-08T14:27:02;1.48;;;1.23;;
41546;SDS011;27271;45.412;10.852;2023-09-08T14:30:25;22.80;;;2.25;;
41546;SDS011;27271;45.412;10.852;2023-09-08T14:33:47;2.75;;;1.63;;
41546;SDS011;27271;45.412;10.852;2023-09-08T14:37:09;2.15;;;1.30;;
41546;SDS011;27271;45.412;10.852;2023-09-08T14:40:32;1.85;;;0.98;;
41546;SDS011;27271;45.412;10.852;2023-09-08T14:43:54;1.35;;;1.00;;
41546;SDS011;27271;45.412;10.852;2023-09-08T14:47:16;1.05;;;0.93;;
41546;SDS011;27271;45.412;10.852;2023-09-08T14:50:38;2.78;;;1.67;;
41546;SDS011;27271;45.412;10.852;2023-09-08T14:54:00;2.60;;;1.90;;
41546;SDS011;27271;45.412;10.852;2023-09-08T14:57:22;1.23;;;1.13;;
41546;SDS011;27271;45.412;10.852;2023-09-08T15:00:44;3.00;;;2.28;;
41546;SDS011;27271;45.412;10.852;2023-09-08T15:04:07;2.25;;;1.08;;
41546;SDS011;27271;45.412;10.852;2023-09-08T15:07:30;0.88;;;0.88;;
41546;SDS011;27271;45.412;10.852;2023-09-08T15:10:52;1.30;;;0.90;;
41546;SDS011;27271;45.412;10.852;2023-09-08T15:14:14;1.77;;;1.25;;
41546;SDS011;27271;45.412;10.852;2023-09-08T15:17:36;0.95;;;0.85;;
41546;SDS011;27271;45.412;10.852;2023-09-08T15:20:59;1.75;;;1.42;;
41546;SDS011;27271;45.412;10.852;2023-09-08T15:24:21;6.80;;;1.67;;
41546;SDS011;27271;45.412;10.852;2023-09-08T15:27:43;1.83;;;1.10;;
41546;SDS011;27271;45.412;10.852;2023-09-08T15:31:05;1.15;;;1.05;;
41546;SDS011;27271;45.412;10.852;2023-09-08T15:34:28;2.08;;;1.27;;
41546;SDS011;27271;45.412;10.852;2023-09-08T15:37:50;2.28;;;1.65;;
41546;SDS011;27271;45.412;10.852;2023-09-08T15:41:13;1.67;;;1.58;;
41546;SDS011;27271;45.412;10.852;2023-09-08T15:44:39;2.88;;;1.85;;
41546;SDS011;27271;45.412;10.852;2023-09-08T15:48:01;2.65;;;1.23;;
41546;SDS011;27271;45.412;10.852;2023-09-08T15:51:24;1.27;;;1.08;;
41546;SDS011;27271;45.412;10.852;2023-09-08T15:54:46;2.15;;;1.42;;
41546;SDS011;27271;45.412;10.852;2023-09-08T15:58:08;1.67;;;1.58;;
41546;SDS011;27271;45.412;10.852;2023-09-08T16:01:30;2.65;;;1.40;;
41546;SDS011;27271;45.412;10.852;2023-09-08T16:04:53;8.27;;;1.70;;
41546;SDS011;27271;45.412;10.852;2023-09-08T16:08:18;1.60;;;1.15;;
41546;SDS011;27271;45.412;10.852;2023-09-08T16:11:42;1.20;;;0.95;;
41546;SDS011;27271;45.412;10.852;2023-09-08T16:15:06;1.90;;;1.52;;
41546;SDS011;27271;45.412;10.852;2023-09-08T16:18:30;1.83;;;1.38;;
41546;SDS011;27271;45.412;10.852;2023-09-08T16:21:52;1.25;;;0.95;;
41546;SDS011;27271;45.412;10.852;2023-09-08T16:25:21;2.10;;;1.45;;
41546;SDS011;27271;45.412;10.852;2023-09-08T16:28:43;1.27;;;1.13;;
41546;SDS011;27271;45.412;10.852;2023-09-08T16:32:06;2.08;;;1.35;;
41546;SDS011;27271;45.412;10.852;2023-09-08T16:35:28;2.65;;;1.90;;
41546;SDS011;27271;45.412;10.852;2023-09-08T16:38:51;4.18;;;1.15;;
41546;SDS011;27271;45.412;10.852;2023-09-08T16:42:13;3.88;;;1.67;;
41546;SDS011;27271;45.412;10.852;2023-09-08T16:45:35;1.58;;;1.27;;
41546;SDS011;27271;45.412;10.852;2023-09-08T16:48:57;1.77;;;1.15;;
41546;SDS011;27271;45.412;10.852;2023-09-08T16:52:20;1.40;;;1.30;;
41546;SDS011;27271;45.412;10.852;2023-09-08T16:55:45;1.65;;;1.42;;
41546;SDS011;27271;45.412;10.852;2023-09-08T16:59:08;2.25;;;1.75;;
41546;SDS011;27271;45.412;10.852;2023-09-08T17:02:30;2.20;;;2.00;;
41546;SDS011;27271;45.412;10.852;2023-09-08T17:05:52;2.10;;;1.88;;
41546;SDS011;27271;45.412;10.852;2023-09-08T17:09:17;1.80;;;1.48;;
41546;SDS011;27271;45.412;10.852;2023-09-08T17:12:43;4.45;;;1.88;;
41546;SDS011;27271;45.412;10.852;2023-09-08T17:16:08;3.35;;;1.42;;
41546;SDS011;27271;45.412;10.852;2023-09-08T17:19:33;2.55;;;1.45;;
41546;SDS011;27271;45.412;10.852;2023-09-08T17:22:55;2.17;;;1.77;;
41546;SDS011;27271;45.412;10.852;2023-09-08T17:26:17;2.92;;;1.88;;
41546;SDS011;27271;45.412;10.852;2023-09-08T17:29:39;1.95;;;1.00;;
41546;SDS011;27271;45.412;10.852;2023-09-08T17:33:04;2.50;;;1.48;;
41546;SDS011;27271;45.412;10.852;2023-09-08T17:36:27;1.33;;;1.20;;
41546;SDS011;27271;45.412;10.852;2023-09-08T17:39:53;1.00;;;0.77;;
41546;SDS011;27271;45.412;10.852;2023-09-08T17:43:18;1.63;;;0.90;;
41546;SDS011;27271;45.412;10.852;2023-09-08T17:46:40;8.30;;;1.42;;
41546;SDS011;27271;45.412;10.852;2023-09-08T17:50:03;2.72;;;1.67;;
41546;SDS011;27271;45.412;10.852;2023-09-08T17:53:26;1.27;;;0.90;;
41546;SDS011;27271;45.412;10.852;2023-09-08T17:56:48;5.88;;;2.67;;
41546;SDS011;27271;45.412;10.852;2023-09-08T18:00:13;6.65;;;3.70;;
41546;SDS011;27271;45.412;10.852;2023-09-08T18:03:35;12.35;;;4.28;;
41546;SDS011;27271;45.412;10.852;2023-09-08T18:06:58;11.18;;;5.68;;
41546;SDS011;27271;45.412;10.852;2023-09-08T18:10:21;11.80;;;5.70;;
41546;SDS011;27271;45.412;10.852;2023-09-08T18:13:43;5.90;;;3.28;;
41546;SDS011;27271;45.412;10.852;2023-09-08T18:17:05;9.32;;;5.47;;
41546;SDS011;27271;45.412;10.852;2023-09-08T18:20:28;22.55;;;10.30;;
41546;SDS011;27271;45.412;10.852;2023-09-08T18:23:51;39.17;;;14.48;;
41546;SDS011;27271;45.412;10.852;2023-09-08T18:27:15;20.00;;;8.15;;
41546;SDS011;27271;45.412;10.852;2023-09-08T18:30:37;5.07;;;4.20;;
41546;SDS011;27271;45.412;10.852;2023-09-08T18:34:05;3.55;;;2.30;;
41546;SDS011;27271;45.412;10.852;2023-09-08T18:37:27;5.43;;;2.95;;
41546;SDS011;27271;45.412;10.852;2023-09-08T18:40:49;2.15;;;1.77;;
41546;SDS011;27271;45.412;10.852;2023-09-08T18:44:11;6.13;;;2.65;;
41546;SDS011;27271;45.412;10.852;2023-09-08T18:47:34;1.67;;;1.50;;
41546;SDS011;27271;45.412;10.852;2023-09-08T18:50:56;3.38;;;1.92;;
41546;SDS011;27271;45.412;10.852;2023-09-08T18:54:18;2.00;;;1.30;;
41546;SDS011;27271;45.412;10.852;2023-09-08T18:57:40;4.18;;;2.33;;
41546;SDS011;27271;45.412;10.852;2023-09-08T19:01:02;3.15;;;1.85;;
41546;SDS011;27271;45.412;10.852;2023-09-08T19:04:26;1.48;;;1.35;;
41546;SDS011;27271;45.412;10.852;2023-09-08T19:07:48;3.05;;;2.10;;
41546;SDS011;27271;45.412;10.852;2023-09-08T19:11:13;1.92;;;1.23;;
41546;SDS011;27271;45.412;10.852;2023-09-08T19:14:38;4.43;;;2.90;;
41546;SDS011;27271;45.412;10.852;2023-09-08T19:18:00;2.28;;;1.52;;
41546;SDS011;27271;45.412;10.852;2023-09-08T19:21:22;2.83;;;2.03;;
41546;SDS011;27271;45.412;10.852;2023-09-08T19:24:45;2.47;;;1.90;;
41546;SDS011;27271;45.412;10.852;2023-09-08T19:28:09;2.63;;;2.03;;
41546;SDS011;27271;45.412;10.852;2023-09-08T19:31:32;3.05;;;2.60;;
41546;SDS011;27271;45.412;10.852;2023-09-08T19:34:54;2.15;;;1.52;;
41546;SDS011;27271;45.412;10.852;2023-09-08T19:38:17;4.88;;;1.58;;
41546;SDS011;27271;45.412;10.852;2023-09-08T19:41:39;2.55;;;1.92;;
41546;SDS011;27271;45.412;10.852;2023-09-08T19:45:01;1.63;;;1.13;;
41546;SDS011;27271;45.412;10.852;2023-09-08T19:48:24;1.75;;;1.40;;
41546;SDS011;27271;45.412;10.852;2023-09-08T19:51:46;1.45;;;1.35;;
41546;SDS011;27271;45.412;10.852;2023-09-08T19:55:08;1.23;;;1.10;;
41546;SDS011;27271;45.412;10.852;2023-09-08T19:58:31;2.55;;;1.38;;
41546;SDS011;27271;45.412;10.852;2023-09-08T20:01:53;3.00;;;1.60;;
41546;SDS011;27271;45.412;10.852;2023-09-08T20:05:15;3.47;;;1.65;;
41546;SDS011;27271;45.412;10.852;2023-09-08T20:08:38;1.63;;;1.38;;
41546;SDS011;27271;45.412;10.852;2023-09-08T20:12:00;4.10;;;2.00;;
41546;SDS011;27271;45.412;10.852;2023-09-08T20:15:22;2.58;;;2.17;;
41546;SDS011;27271;45.412;10.852;2023-09-08T20:18:45;1.38;;;1.02;;
41546;SDS011;27271;45.412;10.852;2023-09-08T20:22:08;1.33;;;1.23;;
41546;SDS011;27271;45.412;10.852;2023-09-08T20:25:30;4.15;;;2.10;;
41546;SDS011;27271;45.412;10.852;2023-09-08T20:28:53;3.05;;;2.33;;
41546;SDS011;27271;45.412;10.852;2023-09-08T20:32:15;3.45;;;2.00;;
41546;SDS011;27271;45.412;10.852;2023-09-08T20:35:38;3.47;;;1.45;;
41546;SDS011;27271;45.412;10.852;2023-09-08T20:39:00;2.47;;;1.58;;
41546;SDS011;27271;45.412;10.852;2023-09-08T20:42:22;4.90;;;1.63;;
41546;SDS011;27271;45.412;10.852;2023-09-08T20:45:50;4.30;;;1.50;;
41546;SDS011;27271;45.412;10.852;2023-09-08T20:49:21;1.35;;;0.63;;
41546;SDS011;27271;45.412;10.852;2023-09-08T20:52:43;3.38;;;2.05;;
41546;SDS011;27271;45.412;10.852;2023-09-08T20:56:05;3.72;;;1.25;;
41546;SDS011;27271;45.412;10.852;2023-09-08T20:59:31;1.80;;;1.63;;
41546;SDS011;27271;45.412;10.852;2023-09-08T21:02:54;2.70;;;1.77;;
41546;SDS011;27271;45.412;10.852;2023-09-08T21:06:16;2.95;;;1.75;;
41546;SDS011;27271;45.412;10.852;2023-09-08T21:09:41;2.08;;;1.77;;
41546;SDS011;27271;45.412;10.852;2023-09-08T21:13:04;1.92;;;1.35;;
41546;SDS011;27271;45.412;10.852;2023-09-08T21:16:26;6.22;;;2.45;;
41546;SDS011;27271;45.412;10.852;2023-09-08T21:19:48;3.97;;;2.05;;
41546;SDS011;27271;45.412;10.852;2023-09-08T21:23:11;1.48;;;1.38;;
41546;SDS011;27271;45.412;10.852;2023-09-08T21:26:33;2.20;;;1.50;;
41546;SDS011;27271;45.412;10.852;2023-09-08T21:29:57;1.25;;;0.85;;
41546;SDS011;27271;45.412;10.852;2023-09-08T21:33:20;1.13;;;1.02;;
41546;SDS011;27271;45.412;10.852;2023-09-08T21:36:42;10.27;;;2.15;;
41546;SDS011;27271;45.412;10.852;2023-09-08T21:40:06;3.63;;;1.90;;
41546;SDS011;27271;45.412;10.852;2023-09-08T21:43:29;2.08;;;1.67;;
41546;SDS011;27271;45.412;10.852;2023-09-08T21:46:51;2.38;;;1.75;;
41546;SDS011;27271;45.412;10.852;2023-09-08T21:50:13;4.05;;;1.58;;
41546;SDS011;27271;45.412;10.852;2023-09-08T21:53:38;2.78;;;2.03;;
41546;SDS011;27271;45.412;10.852;2023-09-08T21:57:00;1.73;;;1.48;;
41546;SDS011;27271;45.412;10.852;2023-09-08T22:00:22;1.45;;;1.35;;
41546;SDS011;27271;45.412;10.852;2023-09-08T22:03:46;2.67;;;1.85;;
41546;SDS011;27271;45.412;10.852;2023-09-08T22:07:11;2.47;;;1.98;;
41546;SDS011;27271;45.412;10.852;2023-09-08T22:10:33;1.98;;;1.73;;
41546;SDS011;27271;45.412;10.852;2023-09-08T22:13:56;7.68;;;2.05;;
41546;SDS011;27271;45.412;10.852;2023-09-08T22:17:18;2.38;;;1.42;;
41546;SDS011;27271;45.412;10.852;2023-09-08T22:20:40;1.70;;;0.82;;
41546;SDS011;27271;45.412;10.852;2023-09-08T22:24:04;2.08;;;1.80;;
41546;SDS011;27271;45.412;10.852;2023-09-08T22:27:27;3.80;;;1.92;;
